createdAt,value
2018-07-14T00:00:29.298Z,100171.00
2018-07-14T00:03:00.278Z,100167.00
2018-07-14T00:05:31.352Z,100169.00
2018-07-14T00:08:01.850Z,100168.00
2018-07-14T00:10:33.406Z,100166.00
2018-07-14T00:13:03.705Z,100169.00
2018-07-14T00:15:35.738Z,100170.00
2018-07-14T00:18:07.450Z,100170.00
2018-07-14T00:20:38.160Z,100174.00
2018-07-14T00:23:08.588Z,100172.00
2018-07-14T00:25:46.561Z,100177.00
2018-07-14T00:28:17.908Z,100174.00
2018-07-14T00:30:49.690Z,100172.00
2018-07-14T00:33:19.357Z,100174.00
2018-07-14T00:35:50.130Z,100174.00
2018-07-14T00:38:19.219Z,100173.00
2018-07-14T00:40:53.154Z,100169.00
2018-07-14T00:43:29.496Z,100169.00
2018-07-14T00:46:02.086Z,100172.00
2018-07-14T00:48:35.008Z,100177.00
2018-07-14T00:51:09.616Z,100171.00
2018-07-14T00:53:41.594Z,100171.00
2018-07-14T00:56:13.124Z,100176.00
2018-07-14T00:58:42.368Z,100180.00
2018-07-14T01:01:12.257Z,100178.00
2018-07-14T01:03:42.073Z,100182.00
2018-07-14T01:06:11.397Z,100183.00
2018-07-14T01:08:42.441Z,100177.00
2018-07-14T01:11:11.837Z,100178.00
2018-07-14T01:13:41.556Z,100179.00
2018-07-14T01:16:13.591Z,100183.00
2018-07-14T01:18:42.952Z,100178.00
2018-07-14T01:21:12.607Z,100183.00
2018-07-14T01:23:41.979Z,100183.00
2018-07-14T01:26:11.868Z,100180.00
2018-07-14T01:28:41.259Z,100177.00
2018-07-14T01:31:10.545Z,100178.00
2018-07-14T01:33:40.206Z,100181.00
2018-07-14T01:36:10.184Z,100175.00
2018-07-14T01:38:39.774Z,100174.00
2018-07-14T01:41:10.486Z,100176.00
2018-07-14T01:43:39.884Z,100177.00
2018-07-14T01:46:11.447Z,100178.00
2018-07-14T01:48:40.911Z,100182.00
2018-07-14T01:51:11.634Z,100181.00
2018-07-14T01:53:41.101Z,100176.00
2018-07-14T01:56:11.135Z,100177.00
2018-07-14T01:58:40.620Z,100183.00
2018-07-14T02:01:11.109Z,100172.00
2018-07-14T02:03:41.111Z,100174.00
2018-07-14T02:06:10.416Z,100175.00
2018-07-14T02:08:39.782Z,100176.00
2018-07-14T02:11:10.039Z,100178.00
2018-07-14T02:13:39.560Z,100174.00
2018-07-14T02:16:09.213Z,100170.00
2018-07-14T02:18:38.419Z,100176.00
2018-07-14T02:21:09.591Z,100176.00
2018-07-14T02:23:38.940Z,100178.00
2018-07-14T02:26:09.241Z,100177.00
2018-07-14T02:28:39.197Z,100173.00
2018-07-14T02:31:08.717Z,100174.00
2018-07-14T02:33:39.632Z,100169.00
2018-07-14T02:36:10.416Z,100170.00
2018-07-14T02:38:40.164Z,100171.00
2018-07-14T02:41:10.182Z,100181.00
2018-07-14T02:43:40.008Z,100179.00
2018-07-14T02:46:10.165Z,100181.00
2018-07-14T02:48:40.037Z,100185.00
2018-07-14T02:51:10.480Z,100188.00
2018-07-14T02:53:40.600Z,100187.00
2018-07-14T02:56:09.730Z,100189.00
2018-07-14T02:58:40.572Z,100188.00
2018-07-14T03:01:13.198Z,100190.00
2018-07-14T03:03:44.198Z,100191.00
2018-07-14T03:06:17.722Z,100189.00
2018-07-14T03:08:46.922Z,100181.00
2018-07-14T03:11:16.726Z,100184.00
2018-07-14T03:13:47.097Z,100187.00
2018-07-14T03:16:16.709Z,100188.00
2018-07-14T03:18:46.244Z,100184.00
2018-07-14T03:21:15.813Z,100183.00
2018-07-14T03:23:48.208Z,100178.00
2018-07-14T03:26:17.546Z,100176.00
2018-07-14T03:28:47.454Z,100175.00
2018-07-14T03:31:16.791Z,100179.00
2018-07-14T03:33:46.292Z,100184.00
2018-07-14T03:36:16.253Z,100178.00
2018-07-14T03:38:46.562Z,100175.00
2018-07-14T03:41:16.284Z,100175.00
2018-07-14T03:43:45.731Z,100174.00
2018-07-14T03:46:15.407Z,100177.00
2018-07-14T03:48:47.044Z,100175.00
2018-07-14T03:51:16.483Z,100178.00
2018-07-14T03:53:46.074Z,100179.00
2018-07-14T03:56:16.435Z,100181.00
2018-07-14T03:58:46.078Z,100178.00
2018-07-14T04:01:15.720Z,100180.00
2018-07-14T04:03:45.800Z,100180.00
2018-07-14T04:06:15.351Z,100177.00
2018-07-14T04:08:45.116Z,100178.00
2018-07-14T04:11:15.147Z,100179.00
2018-07-14T04:13:44.778Z,100182.00
2018-07-14T04:16:14.791Z,100188.00
2018-07-14T04:18:44.924Z,100189.00
2018-07-14T04:21:15.339Z,100188.00
2018-07-14T04:23:46.607Z,100189.00
2018-07-14T04:26:16.383Z,100190.00
2018-07-14T04:28:46.129Z,100191.00
2018-07-14T04:31:18.796Z,100192.00
2018-07-14T04:33:48.499Z,100188.00
2018-07-14T04:36:20.637Z,100190.00
2018-07-14T04:38:50.110Z,100189.00
2018-07-14T04:41:19.608Z,100190.00
2018-07-14T04:43:52.084Z,100190.00
2018-07-14T04:46:21.541Z,100199.00
2018-07-14T04:48:50.952Z,100196.00
2018-07-14T04:51:20.932Z,100199.00
2018-07-14T04:53:50.274Z,100197.00
2018-07-14T04:56:19.768Z,100201.00
2018-07-14T04:58:50.953Z,100202.00
2018-07-14T05:01:22.831Z,100200.00
2018-07-14T05:03:53.996Z,100201.00
2018-07-14T05:06:23.420Z,100196.00
2018-07-14T05:08:53.384Z,100193.00
2018-07-14T05:11:22.798Z,100194.00
2018-07-14T05:13:52.527Z,100192.00
2018-07-14T05:16:22.570Z,100191.00
2018-07-14T05:18:52.611Z,100191.00
2018-07-14T05:21:24.177Z,100190.00
2018-07-14T05:23:55.695Z,100195.00
2018-07-14T05:26:24.975Z,100194.00
2018-07-14T05:28:55.535Z,100201.00
2018-07-14T05:31:24.967Z,100193.00
2018-07-14T05:33:54.443Z,100192.00
2018-07-14T05:36:23.760Z,100195.00
2018-07-14T05:38:58.140Z,100188.00
2018-07-14T05:41:27.596Z,100186.00
2018-07-14T05:43:57.052Z,100188.00
2018-07-14T05:46:26.682Z,100183.00
2018-07-14T05:48:56.152Z,100186.00
2018-07-14T05:51:26.837Z,100194.00
2018-07-14T05:53:55.842Z,100198.00
2018-07-14T05:56:25.409Z,100196.00
2018-07-14T05:58:55.082Z,100194.00
2018-07-14T06:01:24.574Z,100193.00
2018-07-14T06:03:54.714Z,100197.00
2018-07-14T06:06:24.155Z,100203.00
2018-07-14T06:08:53.830Z,100203.00
2018-07-14T06:11:23.299Z,100206.00
2018-07-14T06:13:55.070Z,100202.00
2018-07-14T06:16:24.760Z,100200.00
2018-07-14T06:18:54.464Z,100209.00
2018-07-14T06:21:25.007Z,100213.00
2018-07-14T06:23:54.583Z,100212.00
2018-07-14T06:26:24.914Z,100203.00
2018-07-14T06:28:54.571Z,100203.00
2018-07-14T06:31:23.933Z,100206.00
2018-07-14T06:33:53.436Z,100208.00
2018-07-14T06:36:22.794Z,100207.00
2018-07-14T06:38:52.621Z,100208.00
2018-07-14T06:41:24.456Z,100209.00
2018-07-14T06:43:55.367Z,100207.00
2018-07-14T06:46:24.625Z,100209.00
2018-07-14T06:48:53.926Z,100211.00
2018-07-14T06:51:23.983Z,100212.00
2018-07-14T06:53:53.559Z,100212.00
2018-07-14T06:56:22.824Z,100214.00
2018-07-14T06:58:55.350Z,100214.00
2018-07-14T07:01:24.971Z,100217.00
2018-07-14T07:03:54.371Z,100219.00
2018-07-14T07:06:23.620Z,100216.00
2018-07-14T07:08:53.611Z,100223.00
2018-07-14T07:11:23.058Z,100216.00
2018-07-14T07:13:52.554Z,100219.00
2018-07-14T07:16:21.967Z,100221.00
2018-07-14T07:18:51.590Z,100218.00
2018-07-14T07:21:22.725Z,100220.00
2018-07-14T07:23:52.993Z,100226.00
2018-07-14T07:26:22.401Z,100227.00
2018-07-14T07:28:52.286Z,100228.00
2018-07-14T07:31:21.684Z,100222.00
2018-07-14T07:33:51.842Z,100231.00
2018-07-14T07:36:21.148Z,100231.00
2018-07-14T07:38:50.519Z,100230.00
2018-07-14T07:41:21.461Z,100233.00
2018-07-14T07:43:50.959Z,100235.00
2018-07-14T07:46:20.428Z,100233.00
2018-07-14T07:48:49.941Z,100242.00
2018-07-14T07:51:19.767Z,100233.00
2018-07-14T07:53:53.351Z,100227.00
2018-07-14T07:56:22.633Z,100237.00
2018-07-14T07:58:52.220Z,100237.00
2018-07-14T08:01:21.654Z,100235.00
2018-07-14T08:03:52.810Z,100240.00
2018-07-14T08:06:22.192Z,100233.00
2018-07-14T08:08:51.509Z,100229.00
2018-07-14T08:11:20.877Z,100232.00
2018-07-14T08:13:50.473Z,100236.00
2018-07-14T08:16:21.773Z,100238.00
2018-07-14T08:18:51.150Z,100242.00
2018-07-14T08:21:20.547Z,100238.00
2018-07-14T08:23:49.907Z,100236.00
2018-07-14T08:26:19.190Z,100234.00
2018-07-14T08:28:48.996Z,100234.00
2018-07-14T08:31:18.403Z,100234.00
2018-07-14T08:33:47.621Z,100239.00
2018-07-14T08:36:16.912Z,100239.00
2018-07-14T08:38:46.642Z,100235.00
2018-07-14T08:41:16.861Z,100235.00
2018-07-14T08:43:46.706Z,100227.00
2018-07-14T08:46:16.454Z,100229.00
2018-07-14T08:48:46.171Z,100232.00
2018-07-14T08:51:17.147Z,100226.00
2018-07-14T08:53:46.508Z,100226.00
2018-07-14T08:56:16.137Z,100228.00
2018-07-14T08:58:47.215Z,100222.00
2018-07-14T09:01:16.754Z,100227.00
2018-07-14T09:03:46.092Z,100221.00
2018-07-14T09:06:15.987Z,100222.00
2018-07-14T09:08:45.763Z,100220.00
2018-07-14T09:11:15.910Z,100228.00
2018-07-14T09:13:45.261Z,100223.00
2018-07-14T09:16:15.082Z,100218.00
2018-07-14T09:18:44.560Z,100221.00
2018-07-14T09:21:14.355Z,100218.00
2018-07-14T09:23:45.495Z,100214.00
2018-07-14T09:26:14.968Z,100216.00
2018-07-14T09:28:44.654Z,100215.00
2018-07-14T09:31:14.573Z,100220.00
2018-07-14T09:33:44.352Z,100219.00
2018-07-14T09:36:13.917Z,100216.00
2018-07-14T09:38:44.054Z,100211.00
2018-07-14T09:41:13.702Z,100205.00
2018-07-14T09:43:43.672Z,100206.00
2018-07-14T09:46:13.487Z,100204.00
2018-07-14T09:48:43.560Z,100210.00
2018-07-14T09:51:13.650Z,100210.00
2018-07-14T09:53:44.159Z,100206.00
2018-07-14T09:56:14.169Z,100209.00
2018-07-14T09:58:44.148Z,100206.00
2018-07-14T10:01:15.632Z,100197.00
2018-07-14T10:03:46.358Z,100204.00
2018-07-14T10:06:16.419Z,100192.00
2018-07-14T10:08:46.188Z,100190.00
2018-07-14T10:11:16.753Z,100192.00
2018-07-14T10:13:46.090Z,100187.00
2018-07-14T10:16:15.791Z,100186.00
2018-07-14T10:18:45.768Z,100180.00
2018-07-14T10:21:16.723Z,100181.00
2018-07-14T10:23:49.761Z,100177.00
2018-07-14T10:26:20.527Z,100176.00
2018-07-14T10:28:51.125Z,100172.00
2018-07-14T10:31:21.255Z,100176.00
2018-07-14T10:33:50.873Z,100174.00
2018-07-14T10:36:22.757Z,100171.00
2018-07-14T10:38:53.225Z,100167.00
2018-07-14T10:41:22.730Z,100158.00
2018-07-14T10:43:54.605Z,100169.00
2018-07-14T10:46:25.589Z,100164.00
2018-07-14T10:48:55.634Z,100160.00
2018-07-14T10:51:26.075Z,100157.00
2018-07-14T10:53:55.794Z,100152.00
2018-07-14T10:56:26.681Z,100153.00
2018-07-14T10:58:56.781Z,100149.00
2018-07-14T11:01:26.333Z,100143.00
2018-07-14T11:03:55.946Z,100137.00
2018-07-14T11:06:25.556Z,100137.00
2018-07-14T11:08:56.406Z,100133.00
2018-07-14T11:11:29.190Z,100133.00
2018-07-14T11:13:58.618Z,100135.00
2018-07-14T11:16:27.860Z,100127.00
2018-07-14T11:18:57.298Z,100131.00
2018-07-14T11:21:26.840Z,100133.00
2018-07-14T11:23:56.288Z,100126.00
2018-07-14T11:26:25.961Z,100131.00
2018-07-14T11:28:56.829Z,100126.00
2018-07-14T11:31:27.355Z,100120.00
2018-07-14T11:33:57.066Z,100114.00
2018-07-14T11:36:26.568Z,100118.00
2018-07-14T11:39:01.727Z,100116.00
2018-07-14T11:41:33.975Z,100119.00
2018-07-14T11:44:03.982Z,100118.00
2018-07-14T11:46:33.588Z,100105.00
2018-07-14T11:49:03.289Z,100112.00
2018-07-14T11:51:33.468Z,100106.00
2018-07-14T11:54:03.449Z,100107.00
2018-07-14T11:56:33.047Z,100102.00
2018-07-14T11:59:03.385Z,100103.00
2018-07-14T12:01:33.505Z,100102.00
2018-07-14T12:04:03.436Z,100098.00
2018-07-14T12:06:34.754Z,100102.00
2018-07-14T12:09:05.123Z,100106.00
2018-07-14T12:11:34.717Z,100099.00
2018-07-14T12:14:04.205Z,100098.00
2018-07-14T12:16:33.769Z,100106.00
2018-07-14T12:19:04.431Z,100093.00
2018-07-14T12:21:34.028Z,100093.00
2018-07-14T12:24:04.316Z,100085.00
2018-07-14T12:26:38.877Z,100088.00
2018-07-14T12:29:09.339Z,100090.00
2018-07-14T12:31:41.207Z,100086.00
2018-07-14T12:34:11.218Z,100079.00
2018-07-14T12:36:40.984Z,100073.00
2018-07-14T12:39:12.212Z,100079.00
2018-07-14T12:41:43.823Z,100067.00
2018-07-14T12:44:13.693Z,100063.00
2018-07-14T12:46:45.064Z,100064.00
2018-07-14T12:49:16.514Z,100060.00
2018-07-14T12:51:46.897Z,100063.00
2018-07-14T12:54:17.884Z,100058.00
2018-07-14T12:56:47.991Z,100057.00
2018-07-14T12:59:18.268Z,100056.00
2018-07-14T13:01:48.624Z,100054.00
2018-07-14T13:04:19.204Z,100052.00
2018-07-14T13:06:51.376Z,100050.00
2018-07-14T13:09:21.710Z,100047.00
2018-07-14T13:11:51.412Z,100053.00
2018-07-14T13:14:21.323Z,100050.00
2018-07-14T13:16:51.165Z,100043.00
2018-07-14T13:19:20.718Z,100047.00
2018-07-14T13:21:50.554Z,100042.00
2018-07-14T13:24:21.195Z,100037.00
2018-07-14T13:26:50.792Z,100034.00
2018-07-14T13:29:21.517Z,100035.00
2018-07-14T13:31:51.465Z,100031.00
2018-07-14T13:34:21.803Z,100023.00
2018-07-14T13:36:53.284Z,100024.00
2018-07-14T13:39:22.760Z,100022.00
2018-07-14T13:41:53.766Z,100020.00
2018-07-14T13:44:23.136Z,100022.00
2018-07-14T13:46:52.689Z,100014.00
2018-07-14T13:49:22.185Z,100014.00
2018-07-14T13:51:52.030Z,100007.00
2018-07-14T13:54:21.479Z,100006.00
2018-07-14T13:56:51.733Z,100008.00
2018-07-14T13:59:21.177Z,100009.00
2018-07-14T14:01:50.591Z,99997.00
2018-07-14T14:04:20.009Z,99993.00
2018-07-14T14:06:51.143Z,100000.00
2018-07-14T14:09:20.304Z,99999.00
2018-07-14T14:11:49.905Z,99997.00
2018-07-14T14:14:19.929Z,99990.00
2018-07-14T14:16:50.139Z,99990.00
2018-07-14T14:19:19.697Z,99992.00
2018-07-14T14:21:49.239Z,99988.00
2018-07-14T14:24:18.565Z,99990.00
2018-07-14T14:26:47.946Z,99983.00
2018-07-14T14:29:18.465Z,99979.00
2018-07-14T14:31:48.039Z,99980.00
2018-07-14T14:34:17.260Z,99976.00
2018-07-14T14:36:48.080Z,99974.00
2018-07-14T14:39:17.462Z,99974.00
2018-07-14T14:41:48.016Z,99979.00
2018-07-14T14:44:17.432Z,99980.00
2018-07-14T14:46:46.891Z,99972.00
2018-07-14T14:49:16.322Z,99967.00
2018-07-14T14:51:46.112Z,99966.00
2018-07-14T14:54:15.603Z,99972.00
2018-07-14T14:56:45.912Z,99979.00
2018-07-14T14:59:15.249Z,99977.00
2018-07-14T15:01:44.710Z,99974.00
2018-07-14T15:04:14.288Z,99974.00
2018-07-14T15:06:44.045Z,99973.00
2018-07-14T15:09:15.100Z,99974.00
2018-07-14T15:11:45.616Z,99973.00
2018-07-14T15:14:15.401Z,99969.00
2018-07-14T15:16:44.851Z,99962.00
2018-07-14T15:19:14.889Z,99962.00
2018-07-14T15:21:45.052Z,99961.00
2018-07-14T15:24:16.615Z,99959.00
2018-07-14T15:26:48.583Z,99964.00
2018-07-14T15:29:17.879Z,99959.00
2018-07-14T15:31:47.572Z,99954.00
2018-07-14T15:34:17.066Z,99959.00
2018-07-14T15:36:46.547Z,99951.00
2018-07-14T15:39:16.090Z,99954.00
2018-07-14T15:41:45.494Z,99953.00
2018-07-14T15:44:15.927Z,99948.00
2018-07-14T15:46:45.500Z,99956.00
2018-07-14T15:49:14.944Z,99953.00
2018-07-14T15:51:44.520Z,99954.00
2018-07-14T15:54:13.998Z,99948.00
2018-07-14T15:56:43.446Z,99954.00
2018-07-14T15:59:13.451Z,99953.00
2018-07-14T16:01:43.140Z,99949.00
2018-07-14T16:04:12.663Z,99944.00
2018-07-14T16:06:43.274Z,99950.00
2018-07-14T16:09:13.520Z,99950.00
2018-07-14T16:11:44.246Z,99954.00
2018-07-14T16:14:15.767Z,99956.00
2018-07-14T16:16:46.253Z,99961.00
2018-07-14T16:19:17.084Z,99954.00
2018-07-14T16:21:47.165Z,99954.00
2018-07-14T16:24:16.877Z,99956.00
2018-07-14T16:26:47.373Z,99951.00
2018-07-14T16:29:16.933Z,99946.00
2018-07-14T16:31:46.519Z,99951.00
2018-07-14T16:34:16.226Z,99946.00
2018-07-14T16:36:45.754Z,99953.00
2018-07-14T16:39:16.716Z,99952.00
2018-07-14T16:41:46.481Z,99949.00
2018-07-14T16:44:18.005Z,99946.00
2018-07-14T16:46:47.427Z,99944.00
2018-07-14T16:49:17.306Z,99944.00
2018-07-14T16:51:47.608Z,99943.00
2018-07-14T16:54:16.745Z,99943.00
2018-07-14T16:56:46.780Z,99944.00
2018-07-14T16:59:16.037Z,99938.00
2018-07-14T17:01:45.306Z,99936.00
2018-07-14T17:04:14.957Z,99933.00
2018-07-14T17:06:44.796Z,99946.00
2018-07-14T17:09:14.381Z,99938.00
2018-07-14T17:11:43.763Z,99938.00
2018-07-14T17:14:13.086Z,99935.00
2018-07-14T17:16:42.265Z,99938.00
2018-07-14T17:19:12.162Z,99939.00
2018-07-14T17:21:41.442Z,99935.00
2018-07-14T17:24:10.788Z,99934.00
2018-07-14T17:26:40.078Z,99935.00
2018-07-14T17:29:09.288Z,99934.00
2018-07-14T17:31:38.490Z,99933.00
2018-07-14T17:34:07.712Z,99930.00
2018-07-14T17:36:36.888Z,99919.00
2018-07-14T17:39:07.934Z,99928.00
2018-07-14T17:41:37.314Z,99926.00
2018-07-14T17:44:06.580Z,99924.00
2018-07-14T17:46:35.711Z,99923.00
2018-07-14T17:49:05.376Z,99925.00
2018-07-14T17:51:35.987Z,99918.00
2018-07-14T17:54:05.064Z,99917.00
2018-07-14T17:56:34.233Z,99919.00
2018-07-14T17:59:03.337Z,99919.00
2018-07-14T18:01:32.483Z,99921.00
2018-07-14T18:04:01.665Z,99921.00
2018-07-14T18:06:30.818Z,99918.00
2018-07-14T18:09:00.060Z,99920.00
2018-07-14T18:11:29.198Z,99918.00
2018-07-14T18:13:58.442Z,99928.00
2018-07-14T18:16:27.667Z,99928.00
2018-07-14T18:18:56.859Z,99924.00
2018-07-14T18:21:26.441Z,99924.00
2018-07-14T18:23:56.089Z,99926.00
2018-07-14T18:26:25.627Z,99925.00
2018-07-14T18:28:54.876Z,99921.00
2018-07-14T18:31:23.980Z,99922.00
2018-07-14T18:33:53.707Z,99925.00
2018-07-14T18:36:22.950Z,99918.00
2018-07-14T18:38:52.091Z,99923.00
2018-07-14T18:41:21.221Z,99926.00
2018-07-14T18:43:50.549Z,99927.00
2018-07-14T18:46:19.654Z,99932.00
2018-07-14T18:48:49.005Z,99937.00
2018-07-14T18:51:18.165Z,99930.00
2018-07-14T18:53:47.504Z,99937.00
2018-07-14T18:56:17.503Z,99938.00
2018-07-14T18:58:46.613Z,99940.00
2018-07-14T19:01:15.688Z,99931.00
2018-07-14T19:03:44.908Z,99929.00
2018-07-14T19:06:14.187Z,99932.00
2018-07-14T19:08:43.477Z,99935.00
2018-07-14T19:11:12.686Z,99936.00
2018-07-14T19:13:44.436Z,99937.00
2018-07-14T19:16:14.463Z,99933.00
2018-07-14T19:18:43.975Z,99940.00
2018-07-14T19:21:13.422Z,99941.00
2018-07-14T19:23:44.034Z,99942.00
2018-07-14T19:26:14.551Z,99948.00
2018-07-14T19:28:44.814Z,99946.00
2018-07-14T19:31:14.950Z,99953.00
2018-07-14T19:33:46.805Z,99958.00
2018-07-14T19:36:16.429Z,99956.00
2018-07-14T19:38:46.507Z,99953.00
2018-07-14T19:41:16.066Z,99961.00
2018-07-14T19:43:45.625Z,99965.00
2018-07-14T19:46:15.058Z,99968.00
2018-07-14T19:48:45.424Z,99972.00
2018-07-14T19:51:15.448Z,99974.00
2018-07-14T19:53:45.828Z,99978.00
2018-07-14T19:56:15.602Z,99982.00
2018-07-14T19:58:46.616Z,99986.00
2018-07-14T20:01:17.815Z,99983.00
2018-07-14T20:03:47.960Z,99982.00
2018-07-14T20:06:17.385Z,99984.00
2018-07-14T20:08:46.708Z,99984.00
2018-07-14T20:11:16.191Z,99988.00
2018-07-14T20:13:46.454Z,99985.00
2018-07-14T20:16:15.868Z,99996.00
2018-07-14T20:18:45.757Z,99988.00
2018-07-14T20:21:15.861Z,99992.00
2018-07-14T20:23:45.948Z,99992.00
2018-07-14T20:26:15.995Z,99986.00
2018-07-14T20:28:45.908Z,99994.00
2018-07-14T20:31:15.835Z,99989.00
2018-07-14T20:33:45.419Z,99995.00
2018-07-14T20:36:15.307Z,99992.00
2018-07-14T20:38:44.946Z,99990.00
2018-07-14T20:41:14.681Z,99996.00
2018-07-14T20:43:44.789Z,99992.00
2018-07-14T20:46:16.394Z,99989.00
2018-07-14T20:48:48.522Z,99996.00
2018-07-14T20:51:18.401Z,99997.00
2018-07-14T20:53:48.772Z,99994.00
2018-07-14T20:56:18.014Z,99997.00
2018-07-14T20:58:47.590Z,99996.00
2018-07-14T21:01:16.939Z,99992.00
2018-07-14T21:03:46.882Z,99999.00
2018-07-14T21:06:16.391Z,99992.00
2018-07-14T21:08:48.111Z,99994.00
2018-07-14T21:11:17.435Z,99998.00
2018-07-14T21:13:46.621Z,100005.00
2018-07-14T21:16:16.138Z,99997.00
2018-07-14T21:18:46.352Z,99999.00
2018-07-14T21:21:18.094Z,99996.00
2018-07-14T21:23:48.588Z,99991.00
2018-07-14T21:26:20.313Z,99994.00
2018-07-14T21:28:51.214Z,99996.00
2018-07-14T21:31:22.815Z,99994.00
2018-07-14T21:33:55.867Z,99995.00
2018-07-14T21:36:25.934Z,99999.00
2018-07-14T21:38:57.519Z,100000.00
2018-07-14T21:41:29.000Z,100003.00
2018-07-14T21:43:59.775Z,100003.00
2018-07-14T21:46:32.611Z,100000.00
2018-07-14T21:49:07.460Z,100002.00
2018-07-14T21:51:37.758Z,100005.00
2018-07-14T21:54:08.263Z,100009.00
2018-07-14T21:56:37.786Z,100008.00
2018-07-14T21:59:10.200Z,100011.00
2018-07-14T22:01:48.373Z,100020.00
2018-07-14T22:04:18.229Z,100021.00
2018-07-14T22:06:51.202Z,100022.00
2018-07-14T22:09:20.455Z,100025.00
2018-07-14T22:11:51.157Z,100026.00
2018-07-14T22:14:22.467Z,100021.00
2018-07-14T22:16:51.751Z,100021.00
2018-07-14T22:19:21.116Z,100018.00
2018-07-14T22:21:50.928Z,100014.00
2018-07-14T22:24:22.815Z,100017.00
2018-07-14T22:26:52.106Z,100014.00
2018-07-14T22:29:22.095Z,100018.00
2018-07-14T22:31:51.230Z,100020.00
2018-07-14T22:34:20.573Z,100015.00
2018-07-14T22:36:50.151Z,100017.00
2018-07-14T22:39:20.814Z,100018.00
2018-07-14T22:41:50.308Z,100018.00
2018-07-14T22:44:20.567Z,100007.00
2018-07-14T22:46:50.086Z,100008.00
2018-07-14T22:49:19.256Z,100011.00
2018-07-14T22:51:50.014Z,100013.00
2018-07-14T22:54:19.160Z,100016.00
2018-07-14T22:56:48.732Z,100014.00
2018-07-14T22:59:18.173Z,100014.00
2018-07-14T23:01:47.262Z,100014.00
2018-07-14T23:04:17.136Z,100010.00
2018-07-14T23:06:47.250Z,100015.00
2018-07-14T23:09:17.633Z,100008.00
2018-07-14T23:11:48.242Z,100008.00
2018-07-14T23:14:17.725Z,100004.00
2018-07-14T23:16:46.984Z,100014.00
2018-07-14T23:19:17.599Z,100010.00
2018-07-14T23:21:46.807Z,100015.00
2018-07-14T23:24:16.346Z,100011.00
2018-07-14T23:26:45.849Z,100010.00
2018-07-14T23:29:15.012Z,100008.00
2018-07-14T23:31:44.272Z,100011.00
2018-07-14T23:34:14.731Z,100004.00
2018-07-14T23:36:44.741Z,100004.00
2018-07-14T23:39:14.562Z,100002.00
2018-07-14T23:41:43.977Z,100003.00
2018-07-14T23:44:14.188Z,100002.00
2018-07-14T23:46:43.977Z,100001.00
2018-07-14T23:49:14.738Z,100002.00
2018-07-14T23:51:44.412Z,100000.00
2018-07-14T23:54:13.604Z,100000.00
2018-07-14T23:56:44.174Z,99997.00
2018-07-14T23:59:14.064Z,99994.00
